sensor_id;sensor_type;location;lat;lon;timestamp;P1;durP1;ratioP1;P2;durP2;ratioP2
62844;SDS011;48929;47.910;20.390;2022-12-07T00:01:29;16.02;;;8.25;;
62844;SDS011;48929;47.910;20.390;2022-12-07T00:03:58;14.90;;;8.13;;
62844;SDS011;48929;47.910;20.390;2022-12-07T00:06:32;16.33;;;7.72;;
62844;SDS011;48929;47.910;20.390;2022-12-07T00:09:00;13.02;;;7.40;;
62844;SDS011;48929;47.910;20.390;2022-12-07T00:11:29;14.52;;;7.18;;
62844;SDS011;48929;47.910;20.390;2022-12-07T00:13:58;13.88;;;7.10;;
62844;SDS011;48929;47.910;20.390;2022-12-07T00:16:29;13.43;;;7.10;;
62844;SDS011;48929;47.910;20.390;2022-12-07T00:18:57;13.48;;;7.50;;
62844;SDS011;48929;47.910;20.390;2022-12-07T00:21:26;18.23;;;8.05;;
62844;SDS011;48929;47.910;20.390;2022-12-07T00:23:55;15.63;;;7.85;;
62844;SDS011;48929;47.910;20.390;2022-12-07T00:26:24;15.30;;;7.70;;
62844;SDS011;48929;47.910;20.390;2022-12-07T00:28:53;14.70;;;7.60;;
62844;SDS011;48929;47.910;20.390;2022-12-07T00:31:23;15.48;;;8.05;;
62844;SDS011;48929;47.910;20.390;2022-12-07T00:33:53;17.20;;;8.32;;
62844;SDS011;48929;47.910;20.390;2022-12-07T00:36:22;18.80;;;7.90;;
62844;SDS011;48929;47.910;20.390;2022-12-07T00:38:53;14.68;;;7.78;;
62844;SDS011;48929;47.910;20.390;2022-12-07T00:41:22;14.20;;;7.57;;
62844;SDS011;48929;47.910;20.390;2022-12-07T00:43:51;16.73;;;8.80;;
62844;SDS011;48929;47.910;20.390;2022-12-07T00:46:19;19.02;;;8.50;;
62844;SDS011;48929;47.910;20.390;2022-12-07T00:48:48;12.77;;;7.38;;
62844;SDS011;48929;47.910;20.390;2022-12-07T00:51:19;15.27;;;7.65;;
62844;SDS011;48929;47.910;20.390;2022-12-07T00:53:48;16.42;;;7.80;;
62844;SDS011;48929;47.910;20.390;2022-12-07T00:56:18;14.57;;;7.30;;
62844;SDS011;48929;47.910;20.390;2022-12-07T00:58:49;16.30;;;7.57;;
62844;SDS011;48929;47.910;20.390;2022-12-07T01:01:17;15.73;;;8.00;;
62844;SDS011;48929;47.910;20.390;2022-12-07T01:03:46;15.50;;;7.20;;
62844;SDS011;48929;47.910;20.390;2022-12-07T01:06:15;13.82;;;7.05;;
62844;SDS011;48929;47.910;20.390;2022-12-07T01:08:45;15.27;;;7.93;;
62844;SDS011;48929;47.910;20.390;2022-12-07T01:11:14;14.85;;;6.88;;
62844;SDS011;48929;47.910;20.390;2022-12-07T01:13:42;13.77;;;8.00;;
62844;SDS011;48929;47.910;20.390;2022-12-07T01:16:12;17.20;;;8.23;;
62844;SDS011;48929;47.910;20.390;2022-12-07T01:18:41;18.17;;;8.43;;
62844;SDS011;48929;47.910;20.390;2022-12-07T01:21:09;17.38;;;8.52;;
62844;SDS011;48929;47.910;20.390;2022-12-07T01:23:38;15.70;;;7.13;;
62844;SDS011;48929;47.910;20.390;2022-12-07T01:26:10;17.30;;;7.88;;
62844;SDS011;48929;47.910;20.390;2022-12-07T01:28:39;16.88;;;7.72;;
62844;SDS011;48929;47.910;20.390;2022-12-07T01:31:08;18.15;;;8.68;;
62844;SDS011;48929;47.910;20.390;2022-12-07T01:33:38;16.67;;;7.97;;
62844;SDS011;48929;47.910;20.390;2022-12-07T01:36:08;19.27;;;8.02;;
62844;SDS011;48929;47.910;20.390;2022-12-07T01:38:36;16.45;;;8.05;;
62844;SDS011;48929;47.910;20.390;2022-12-07T01:41:05;16.92;;;8.02;;
62844;SDS011;48929;47.910;20.390;2022-12-07T01:43:35;19.33;;;8.23;;
62844;SDS011;48929;47.910;20.390;2022-12-07T01:46:03;17.35;;;8.27;;
62844;SDS011;48929;47.910;20.390;2022-12-07T01:48:32;17.20;;;8.07;;
62844;SDS011;48929;47.910;20.390;2022-12-07T01:51:03;19.45;;;8.20;;
62844;SDS011;48929;47.910;20.390;2022-12-07T01:53:32;18.48;;;8.40;;
62844;SDS011;48929;47.910;20.390;2022-12-07T01:56:02;22.73;;;8.90;;
62844;SDS011;48929;47.910;20.390;2022-12-07T01:58:31;22.48;;;10.38;;
62844;SDS011;48929;47.910;20.390;2022-12-07T02:01:01;28.77;;;11.63;;
62844;SDS011;48929;47.910;20.390;2022-12-07T02:03:30;28.45;;;11.05;;
62844;SDS011;48929;47.910;20.390;2022-12-07T02:06:00;25.77;;;11.18;;
62844;SDS011;48929;47.910;20.390;2022-12-07T02:08:28;26.90;;;11.73;;
62844;SDS011;48929;47.910;20.390;2022-12-07T02:10:56;26.15;;;11.35;;
62844;SDS011;48929;47.910;20.390;2022-12-07T02:13:25;23.02;;;10.95;;
62844;SDS011;48929;47.910;20.390;2022-12-07T02:15:59;24.70;;;10.57;;
62844;SDS011;48929;47.910;20.390;2022-12-07T02:18:36;21.83;;;9.93;;
62844;SDS011;48929;47.910;20.390;2022-12-07T02:21:07;23.05;;;9.90;;
62844;SDS011;48929;47.910;20.390;2022-12-07T02:23:53;23.83;;;10.60;;
62844;SDS011;48929;47.910;20.390;2022-12-07T02:26:35;22.63;;;9.60;;
62844;SDS011;48929;47.910;20.390;2022-12-07T02:29:16;20.77;;;9.70;;
62844;SDS011;48929;47.910;20.390;2022-12-07T02:31:46;20.95;;;9.93;;
62844;SDS011;48929;47.910;20.390;2022-12-07T02:34:19;21.35;;;10.20;;
62844;SDS011;48929;47.910;20.390;2022-12-07T02:36:51;20.35;;;9.32;;
62844;SDS011;48929;47.910;20.390;2022-12-07T02:39:23;22.02;;;10.90;;
62844;SDS011;48929;47.910;20.390;2022-12-07T02:41:55;24.20;;;12.38;;
62844;SDS011;48929;47.910;20.390;2022-12-07T02:44:27;25.20;;;11.38;;
62844;SDS011;48929;47.910;20.390;2022-12-07T02:46:57;29.08;;;12.85;;
62844;SDS011;48929;47.910;20.390;2022-12-07T02:49:26;24.73;;;12.25;;
62844;SDS011;48929;47.910;20.390;2022-12-07T02:51:55;24.35;;;11.10;;
62844;SDS011;48929;47.910;20.390;2022-12-07T02:54:23;24.02;;;11.70;;
62844;SDS011;48929;47.910;20.390;2022-12-07T02:56:52;25.42;;;11.95;;
62844;SDS011;48929;47.910;20.390;2022-12-07T02:59:25;26.88;;;12.05;;
62844;SDS011;48929;47.910;20.390;2022-12-07T03:02:01;25.20;;;11.70;;
62844;SDS011;48929;47.910;20.390;2022-12-07T03:04:35;26.10;;;12.02;;
62844;SDS011;48929;47.910;20.390;2022-12-07T03:07:05;21.73;;;10.80;;
62844;SDS011;48929;47.910;20.390;2022-12-07T03:09:37;25.95;;;11.80;;
62844;SDS011;48929;47.910;20.390;2022-12-07T03:12:10;25.13;;;11.48;;
62844;SDS011;48929;47.910;20.390;2022-12-07T03:14:41;22.77;;;10.87;;
62844;SDS011;48929;47.910;20.390;2022-12-07T03:17:15;24.23;;;10.98;;
62844;SDS011;48929;47.910;20.390;2022-12-07T03:19:46;22.58;;;11.43;;
62844;SDS011;48929;47.910;20.390;2022-12-07T03:22:15;22.02;;;11.50;;
62844;SDS011;48929;47.910;20.390;2022-12-07T03:24:46;22.42;;;10.82;;
62844;SDS011;48929;47.910;20.390;2022-12-07T03:27:16;23.95;;;10.70;;
62844;SDS011;48929;47.910;20.390;2022-12-07T03:29:47;26.33;;;10.63;;
62844;SDS011;48929;47.910;20.390;2022-12-07T03:32:19;26.23;;;11.50;;
62844;SDS011;48929;47.910;20.390;2022-12-07T03:34:51;20.48;;;10.15;;
62844;SDS011;48929;47.910;20.390;2022-12-07T03:37:22;28.40;;;11.63;;
62844;SDS011;48929;47.910;20.390;2022-12-07T03:39:53;25.00;;;12.73;;
62844;SDS011;48929;47.910;20.390;2022-12-07T03:42:26;28.60;;;13.18;;
62844;SDS011;48929;47.910;20.390;2022-12-07T03:44:54;24.75;;;11.57;;
62844;SDS011;48929;47.910;20.390;2022-12-07T03:47:25;26.27;;;11.75;;
62844;SDS011;48929;47.910;20.390;2022-12-07T03:49:55;25.70;;;12.02;;
62844;SDS011;48929;47.910;20.390;2022-12-07T03:52:30;23.73;;;11.15;;
62844;SDS011;48929;47.910;20.390;2022-12-07T03:55:01;25.17;;;12.00;;
62844;SDS011;48929;47.910;20.390;2022-12-07T03:57:32;22.83;;;11.48;;
62844;SDS011;48929;47.910;20.390;2022-12-07T04:00:04;22.98;;;10.70;;
62844;SDS011;48929;47.910;20.390;2022-12-07T04:02:34;22.15;;;10.90;;
62844;SDS011;48929;47.910;20.390;2022-12-07T04:05:03;21.15;;;11.05;;
62844;SDS011;48929;47.910;20.390;2022-12-07T04:07:32;23.52;;;11.98;;
62844;SDS011;48929;47.910;20.390;2022-12-07T04:10:00;23.23;;;12.02;;
62844;SDS011;48929;47.910;20.390;2022-12-07T04:12:29;24.95;;;11.98;;
62844;SDS011;48929;47.910;20.390;2022-12-07T04:14:57;24.90;;;12.00;;
62844;SDS011;48929;47.910;20.390;2022-12-07T04:17:25;21.65;;;11.80;;
62844;SDS011;48929;47.910;20.390;2022-12-07T04:19:55;24.95;;;11.57;;
62844;SDS011;48929;47.910;20.390;2022-12-07T04:22:24;18.75;;;10.40;;
62844;SDS011;48929;47.910;20.390;2022-12-07T04:24:52;22.30;;;10.68;;
62844;SDS011;48929;47.910;20.390;2022-12-07T04:27:20;22.52;;;10.93;;
62844;SDS011;48929;47.910;20.390;2022-12-07T04:29:49;21.27;;;11.13;;
62844;SDS011;48929;47.910;20.390;2022-12-07T04:32:17;21.75;;;10.93;;
62844;SDS011;48929;47.910;20.390;2022-12-07T04:34:45;20.85;;;10.77;;
62844;SDS011;48929;47.910;20.390;2022-12-07T04:37:23;21.67;;;10.70;;
62844;SDS011;48929;47.910;20.390;2022-12-07T04:39:51;23.10;;;11.38;;
62844;SDS011;48929;47.910;20.390;2022-12-07T04:42:20;24.73;;;11.55;;
62844;SDS011;48929;47.910;20.390;2022-12-07T04:44:48;25.90;;;11.82;;
62844;SDS011;48929;47.910;20.390;2022-12-07T04:47:17;23.48;;;11.30;;
62844;SDS011;48929;47.910;20.390;2022-12-07T04:49:45;22.58;;;11.65;;
62844;SDS011;48929;47.910;20.390;2022-12-07T04:52:14;24.42;;;11.90;;
62844;SDS011;48929;47.910;20.390;2022-12-07T04:54:44;25.30;;;11.30;;
62844;SDS011;48929;47.910;20.390;2022-12-07T04:57:12;26.27;;;12.23;;
62844;SDS011;48929;47.910;20.390;2022-12-07T04:59:40;21.92;;;11.85;;
62844;SDS011;48929;47.910;20.390;2022-12-07T05:02:11;21.95;;;10.95;;
62844;SDS011;48929;47.910;20.390;2022-12-07T05:04:40;21.90;;;11.32;;
62844;SDS011;48929;47.910;20.390;2022-12-07T05:07:08;25.80;;;12.52;;
62844;SDS011;48929;47.910;20.390;2022-12-07T05:09:36;24.10;;;12.27;;
62844;SDS011;48929;47.910;20.390;2022-12-07T05:12:07;24.98;;;12.07;;
62844;SDS011;48929;47.910;20.390;2022-12-07T05:14:35;22.00;;;11.88;;
62844;SDS011;48929;47.910;20.390;2022-12-07T05:17:03;22.38;;;11.85;;
62844;SDS011;48929;47.910;20.390;2022-12-07T05:19:32;26.95;;;12.38;;
62844;SDS011;48929;47.910;20.390;2022-12-07T05:22:00;28.85;;;13.13;;
62844;SDS011;48929;47.910;20.390;2022-12-07T05:24:29;25.65;;;12.77;;
62844;SDS011;48929;47.910;20.390;2022-12-07T05:26:57;27.90;;;14.13;;
62844;SDS011;48929;47.910;20.390;2022-12-07T05:29:27;32.72;;;15.13;;
62844;SDS011;48929;47.910;20.390;2022-12-07T05:31:55;34.88;;;16.15;;
62844;SDS011;48929;47.910;20.390;2022-12-07T05:34:24;39.35;;;19.42;;
62844;SDS011;48929;47.910;20.390;2022-12-07T05:36:52;38.47;;;18.50;;
62844;SDS011;48929;47.910;20.390;2022-12-07T05:39:21;42.17;;;20.10;;
62844;SDS011;48929;47.910;20.390;2022-12-07T05:41:49;49.67;;;21.75;;
62844;SDS011;48929;47.910;20.390;2022-12-07T05:44:36;47.10;;;20.83;;
62844;SDS011;48929;47.910;20.390;2022-12-07T05:47:04;45.42;;;21.95;;
62844;SDS011;48929;47.910;20.390;2022-12-07T05:49:33;40.75;;;19.73;;
62844;SDS011;48929;47.910;20.390;2022-12-07T05:52:01;40.17;;;18.75;;
62844;SDS011;48929;47.910;20.390;2022-12-07T05:54:30;35.90;;;17.77;;
62844;SDS011;48929;47.910;20.390;2022-12-07T05:56:58;32.28;;;17.05;;
62844;SDS011;48929;47.910;20.390;2022-12-07T05:59:27;31.98;;;15.43;;
62844;SDS011;48929;47.910;20.390;2022-12-07T06:01:57;31.45;;;15.02;;
62844;SDS011;48929;47.910;20.390;2022-12-07T06:04:27;27.90;;;13.52;;
62844;SDS011;48929;47.910;20.390;2022-12-07T06:06:55;32.28;;;15.23;;
62844;SDS011;48929;47.910;20.390;2022-12-07T06:09:25;32.95;;;14.93;;
62844;SDS011;48929;47.910;20.390;2022-12-07T06:11:54;34.70;;;15.55;;
62844;SDS011;48929;47.910;20.390;2022-12-07T06:14:39;32.65;;;15.20;;
62844;SDS011;48929;47.910;20.390;2022-12-07T06:17:09;32.80;;;15.45;;
62844;SDS011;48929;47.910;20.390;2022-12-07T06:19:38;32.30;;;15.70;;
62844;SDS011;48929;47.910;20.390;2022-12-07T06:22:09;32.08;;;15.82;;
62844;SDS011;48929;47.910;20.390;2022-12-07T06:24:38;43.22;;;21.02;;
62844;SDS011;48929;47.910;20.390;2022-12-07T06:27:07;38.42;;;20.95;;
62844;SDS011;48929;47.910;20.390;2022-12-07T06:29:36;43.17;;;23.10;;
62844;SDS011;48929;47.910;20.390;2022-12-07T06:32:04;46.35;;;23.77;;
62844;SDS011;48929;47.910;20.390;2022-12-07T06:34:34;44.95;;;23.48;;
62844;SDS011;48929;47.910;20.390;2022-12-07T06:37:02;44.70;;;23.63;;
62844;SDS011;48929;47.910;20.390;2022-12-07T06:39:30;47.10;;;23.85;;
62844;SDS011;48929;47.910;20.390;2022-12-07T06:41:59;44.53;;;24.73;;
62844;SDS011;48929;47.910;20.390;2022-12-07T06:44:27;53.92;;;28.55;;
62844;SDS011;48929;47.910;20.390;2022-12-07T06:46:55;42.83;;;19.80;;
62844;SDS011;48929;47.910;20.390;2022-12-07T06:49:49;44.95;;;23.50;;
62844;SDS011;48929;47.910;20.390;2022-12-07T06:52:17;38.05;;;19.00;;
62844;SDS011;48929;47.910;20.390;2022-12-07T06:54:46;33.65;;;17.35;;
62844;SDS011;48929;47.910;20.390;2022-12-07T06:57:14;35.85;;;17.85;;
62844;SDS011;48929;47.910;20.390;2022-12-07T06:59:42;36.10;;;18.85;;
62844;SDS011;48929;47.910;20.390;2022-12-07T07:02:11;38.25;;;19.67;;
62844;SDS011;48929;47.910;20.390;2022-12-07T07:04:42;33.75;;;17.90;;
62844;SDS011;48929;47.910;20.390;2022-12-07T07:07:12;37.22;;;17.67;;
62844;SDS011;48929;47.910;20.390;2022-12-07T07:09:41;39.47;;;17.65;;
62844;SDS011;48929;47.910;20.390;2022-12-07T07:12:09;33.25;;;18.10;;
62844;SDS011;48929;47.910;20.390;2022-12-07T07:14:37;27.98;;;15.20;;
62844;SDS011;48929;47.910;20.390;2022-12-07T07:17:06;33.97;;;16.35;;
62844;SDS011;48929;47.910;20.390;2022-12-07T07:19:35;29.48;;;15.07;;
62844;SDS011;48929;47.910;20.390;2022-12-07T07:22:04;29.95;;;15.93;;
62844;SDS011;48929;47.910;20.390;2022-12-07T07:24:35;29.88;;;15.38;;
62844;SDS011;48929;47.910;20.390;2022-12-07T07:27:03;32.95;;;18.08;;
62844;SDS011;48929;47.910;20.390;2022-12-07T07:29:31;29.60;;;14.73;;
62844;SDS011;48929;47.910;20.390;2022-12-07T07:32:00;29.48;;;16.15;;
62844;SDS011;48929;47.910;20.390;2022-12-07T07:34:32;31.52;;;15.98;;
62844;SDS011;48929;47.910;20.390;2022-12-07T07:37:01;28.52;;;15.52;;
62844;SDS011;48929;47.910;20.390;2022-12-07T07:39:29;29.70;;;14.68;;
62844;SDS011;48929;47.910;20.390;2022-12-07T07:42:01;27.58;;;13.45;;
62844;SDS011;48929;47.910;20.390;2022-12-07T07:44:30;30.23;;;14.45;;
62844;SDS011;48929;47.910;20.390;2022-12-07T07:47:01;34.47;;;16.15;;
62844;SDS011;48929;47.910;20.390;2022-12-07T07:49:29;29.10;;;15.55;;
62844;SDS011;48929;47.910;20.390;2022-12-07T07:51:58;35.80;;;16.83;;
62844;SDS011;48929;47.910;20.390;2022-12-07T07:54:26;36.30;;;19.00;;
62844;SDS011;48929;47.910;20.390;2022-12-07T07:56:54;34.90;;;17.92;;
62844;SDS011;48929;47.910;20.390;2022-12-07T07:59:25;35.08;;;19.38;;
62844;SDS011;48929;47.910;20.390;2022-12-07T08:01:55;38.63;;;20.08;;
62844;SDS011;48929;47.910;20.390;2022-12-07T08:04:24;38.42;;;20.55;;
62844;SDS011;48929;47.910;20.390;2022-12-07T08:06:54;39.38;;;19.83;;
62844;SDS011;48929;47.910;20.390;2022-12-07T08:09:22;33.90;;;16.90;;
62844;SDS011;48929;47.910;20.390;2022-12-07T08:11:51;34.95;;;17.50;;
62844;SDS011;48929;47.910;20.390;2022-12-07T08:14:19;35.72;;;18.58;;
62844;SDS011;48929;47.910;20.390;2022-12-07T08:16:50;31.00;;;17.83;;
62844;SDS011;48929;47.910;20.390;2022-12-07T08:19:19;33.40;;;17.00;;
62844;SDS011;48929;47.910;20.390;2022-12-07T08:21:47;33.75;;;17.63;;
62844;SDS011;48929;47.910;20.390;2022-12-07T08:28:00;32.88;;;17.13;;
62844;SDS011;48929;47.910;20.390;2022-12-07T08:30:32;37.40;;;19.48;;
62844;SDS011;48929;47.910;20.390;2022-12-07T08:33:16;34.70;;;20.02;;
62844;SDS011;48929;47.910;20.390;2022-12-07T08:35:49;34.58;;;19.25;;
62844;SDS011;48929;47.910;20.390;2022-12-07T08:38:24;29.17;;;16.10;;
62844;SDS011;48929;47.910;20.390;2022-12-07T08:41:06;26.25;;;13.18;;
62844;SDS011;48929;47.910;20.390;2022-12-07T08:43:35;27.63;;;14.10;;
62844;SDS011;48929;47.910;20.390;2022-12-07T08:46:08;24.85;;;14.27;;
62844;SDS011;48929;47.910;20.390;2022-12-07T08:48:43;23.70;;;12.68;;
62844;SDS011;48929;47.910;20.390;2022-12-07T08:51:20;23.20;;;12.73;;
62844;SDS011;48929;47.910;20.390;2022-12-07T08:53:49;23.67;;;13.68;;
62844;SDS011;48929;47.910;20.390;2022-12-07T08:56:18;27.77;;;15.00;;
62844;SDS011;48929;47.910;20.390;2022-12-07T08:58:48;23.25;;;13.57;;
62844;SDS011;48929;47.910;20.390;2022-12-07T09:01:16;26.48;;;13.60;;
62844;SDS011;48929;47.910;20.390;2022-12-07T09:03:50;21.00;;;11.90;;
62844;SDS011;48929;47.910;20.390;2022-12-07T09:06:19;24.00;;;12.20;;
62844;SDS011;48929;47.910;20.390;2022-12-07T09:08:49;26.17;;;14.48;;
62844;SDS011;48929;47.910;20.390;2022-12-07T09:11:18;24.05;;;13.52;;
62844;SDS011;48929;47.910;20.390;2022-12-07T09:13:54;26.73;;;14.35;;
62844;SDS011;48929;47.910;20.390;2022-12-07T09:16:22;28.75;;;14.85;;
62844;SDS011;48929;47.910;20.390;2022-12-07T09:18:53;30.52;;;16.60;;
62844;SDS011;48929;47.910;20.390;2022-12-07T09:21:26;26.75;;;13.73;;
62844;SDS011;48929;47.910;20.390;2022-12-07T09:23:55;22.73;;;13.65;;
62844;SDS011;48929;47.910;20.390;2022-12-07T09:26:24;27.88;;;14.30;;
62844;SDS011;48929;47.910;20.390;2022-12-07T09:28:53;25.77;;;13.55;;
62844;SDS011;48929;47.910;20.390;2022-12-07T09:31:22;22.65;;;12.90;;
62844;SDS011;48929;47.910;20.390;2022-12-07T09:33:57;21.63;;;12.35;;
62844;SDS011;48929;47.910;20.390;2022-12-07T09:36:26;27.50;;;14.43;;
62844;SDS011;48929;47.910;20.390;2022-12-07T09:38:56;21.10;;;12.77;;
62844;SDS011;48929;47.910;20.390;2022-12-07T09:41:25;20.17;;;12.50;;
62844;SDS011;48929;47.910;20.390;2022-12-07T09:43:57;19.60;;;11.38;;
62844;SDS011;48929;47.910;20.390;2022-12-07T09:46:29;18.02;;;10.95;;
62844;SDS011;48929;47.910;20.390;2022-12-07T09:49:04;17.95;;;11.10;;
62844;SDS011;48929;47.910;20.390;2022-12-07T09:51:33;17.42;;;10.27;;
62844;SDS011;48929;47.910;20.390;2022-12-07T09:54:01;22.30;;;12.65;;
62844;SDS011;48929;47.910;20.390;2022-12-07T09:56:30;16.98;;;9.25;;
62844;SDS011;48929;47.910;20.390;2022-12-07T09:58:59;13.68;;;8.45;;
62844;SDS011;48929;47.910;20.390;2022-12-07T10:01:32;14.38;;;8.50;;
62844;SDS011;48929;47.910;20.390;2022-12-07T10:04:09;12.05;;;7.97;;
62844;SDS011;48929;47.910;20.390;2022-12-07T10:06:40;12.70;;;8.25;;
62844;SDS011;48929;47.910;20.390;2022-12-07T10:09:09;13.93;;;8.30;;
62844;SDS011;48929;47.910;20.390;2022-12-07T10:14:37;12.63;;;7.68;;
62844;SDS011;48929;47.910;20.390;2022-12-07T10:17:29;13.00;;;7.72;;
62844;SDS011;48929;47.910;20.390;2022-12-07T10:23:02;14.07;;;8.00;;
62844;SDS011;48929;47.910;20.390;2022-12-07T10:25:31;11.82;;;6.43;;
62844;SDS011;48929;47.910;20.390;2022-12-07T10:28:11;12.23;;;7.60;;
62844;SDS011;48929;47.910;20.390;2022-12-07T10:30:46;12.35;;;7.32;;
62844;SDS011;48929;47.910;20.390;2022-12-07T10:33:27;11.25;;;7.75;;
62844;SDS011;48929;47.910;20.390;2022-12-07T11:12:43;8.93;;;5.38;;
62844;SDS011;48929;47.910;20.390;2022-12-07T11:15:17;8.43;;;4.72;;
62844;SDS011;48929;47.910;20.390;2022-12-07T11:17:49;8.57;;;4.65;;
62844;SDS011;48929;47.910;20.390;2022-12-07T11:20:24;11.57;;;6.90;;
62844;SDS011;48929;47.910;20.390;2022-12-07T11:22:58;8.70;;;5.25;;
62844;SDS011;48929;47.910;20.390;2022-12-07T11:25:31;6.20;;;3.78;;
62844;SDS011;48929;47.910;20.390;2022-12-07T11:28:06;8.02;;;5.10;;
62844;SDS011;48929;47.910;20.390;2022-12-07T11:30:38;7.75;;;4.82;;
62844;SDS011;48929;47.910;20.390;2022-12-07T11:33:12;7.50;;;4.97;;
62844;SDS011;48929;47.910;20.390;2022-12-07T11:35:50;7.72;;;4.40;;
62844;SDS011;48929;47.910;20.390;2022-12-07T11:38:24;6.75;;;4.47;;
62844;SDS011;48929;47.910;20.390;2022-12-07T11:40:58;6.38;;;4.28;;
62844;SDS011;48929;47.910;20.390;2022-12-07T11:43:52;6.43;;;3.58;;
62844;SDS011;48929;47.910;20.390;2022-12-07T11:46:22;6.22;;;4.20;;
62844;SDS011;48929;47.910;20.390;2022-12-07T11:48:54;6.38;;;4.30;;
62844;SDS011;48929;47.910;20.390;2022-12-07T11:51:26;6.95;;;4.53;;
62844;SDS011;48929;47.910;20.390;2022-12-07T11:54:01;6.22;;;4.43;;
62844;SDS011;48929;47.910;20.390;2022-12-07T11:56:31;8.07;;;4.82;;
62844;SDS011;48929;47.910;20.390;2022-12-07T11:59:07;6.32;;;3.95;;
62844;SDS011;48929;47.910;20.390;2022-12-07T12:01:41;8.63;;;4.45;;
62844;SDS011;48929;47.910;20.390;2022-12-07T12:04:20;7.15;;;3.50;;
62844;SDS011;48929;47.910;20.390;2022-12-07T12:06:50;5.85;;;3.45;;
62844;SDS011;48929;47.910;20.390;2022-12-07T12:09:21;8.90;;;4.10;;
62844;SDS011;48929;47.910;20.390;2022-12-07T12:12:12;5.90;;;3.53;;
62844;SDS011;48929;47.910;20.390;2022-12-07T12:15:13;5.05;;;3.20;;
62844;SDS011;48929;47.910;20.390;2022-12-07T12:17:50;6.00;;;3.53;;
62844;SDS011;48929;47.910;20.390;2022-12-07T12:20:23;9.13;;;4.78;;
62844;SDS011;48929;47.910;20.390;2022-12-07T12:22:55;7.93;;;3.88;;
62844;SDS011;48929;47.910;20.390;2022-12-07T12:25:28;6.88;;;4.40;;
62844;SDS011;48929;47.910;20.390;2022-12-07T12:27:58;7.82;;;4.68;;
62844;SDS011;48929;47.910;20.390;2022-12-07T12:30:35;8.50;;;4.57;;
62844;SDS011;48929;47.910;20.390;2022-12-07T12:33:05;14.13;;;6.40;;
62844;SDS011;48929;47.910;20.390;2022-12-07T12:35:36;8.95;;;5.30;;
62844;SDS011;48929;47.910;20.390;2022-12-07T12:38:26;8.75;;;4.90;;
62844;SDS011;48929;47.910;20.390;2022-12-07T12:40:55;8.80;;;5.50;;
62844;SDS011;48929;47.910;20.390;2022-12-07T12:46:38;6.15;;;3.97;;
62844;SDS011;48929;47.910;20.390;2022-12-07T12:58:21;10.63;;;5.13;;
62844;SDS011;48929;47.910;20.390;2022-12-07T13:04:02;8.18;;;5.35;;
62844;SDS011;48929;47.910;20.390;2022-12-07T13:06:39;9.98;;;4.93;;
62844;SDS011;48929;47.910;20.390;2022-12-07T13:09:18;9.93;;;5.40;;
62844;SDS011;48929;47.910;20.390;2022-12-07T13:12:03;7.80;;;4.63;;
62844;SDS011;48929;47.910;20.390;2022-12-07T13:14:41;8.05;;;4.30;;
62844;SDS011;48929;47.910;20.390;2022-12-07T13:33:14;5.50;;;3.45;;
62844;SDS011;48929;47.910;20.390;2022-12-07T13:35:47;6.38;;;4.25;;
62844;SDS011;48929;47.910;20.390;2022-12-07T13:38:27;7.80;;;4.30;;
62844;SDS011;48929;47.910;20.390;2022-12-07T13:41:04;8.15;;;4.40;;
62844;SDS011;48929;47.910;20.390;2022-12-07T13:43:44;12.63;;;5.20;;
62844;SDS011;48929;47.910;20.390;2022-12-07T13:46:15;8.30;;;5.38;;
62844;SDS011;48929;47.910;20.390;2022-12-07T13:48:50;10.60;;;5.47;;
62844;SDS011;48929;47.910;20.390;2022-12-07T13:51:23;8.68;;;5.22;;
62844;SDS011;48929;47.910;20.390;2022-12-07T13:54:01;4.95;;;3.10;;
62844;SDS011;48929;47.910;20.390;2022-12-07T13:56:36;4.82;;;3.13;;
62844;SDS011;48929;47.910;20.390;2022-12-07T13:59:16;7.72;;;4.07;;
62844;SDS011;48929;47.910;20.390;2022-12-07T14:01:45;6.03;;;3.90;;
62844;SDS011;48929;47.910;20.390;2022-12-07T14:09:56;8.20;;;4.40;;
62844;SDS011;48929;47.910;20.390;2022-12-07T14:12:29;6.95;;;4.20;;
62844;SDS011;48929;47.910;20.390;2022-12-07T14:14:59;5.18;;;3.38;;
62844;SDS011;48929;47.910;20.390;2022-12-07T14:17:29;6.05;;;4.18;;
62844;SDS011;48929;47.910;20.390;2022-12-07T14:19:58;12.20;;;4.90;;
62844;SDS011;48929;47.910;20.390;2022-12-07T14:22:27;7.93;;;4.70;;
62844;SDS011;48929;47.910;20.390;2022-12-07T14:27:50;8.10;;;5.10;;
62844;SDS011;48929;47.910;20.390;2022-12-07T14:30:19;9.13;;;4.93;;
62844;SDS011;48929;47.910;20.390;2022-12-07T14:32:54;8.05;;;4.38;;
62844;SDS011;48929;47.910;20.390;2022-12-07T14:35:23;9.82;;;5.40;;
62844;SDS011;48929;47.910;20.390;2022-12-07T14:37:52;9.65;;;5.28;;
62844;SDS011;48929;47.910;20.390;2022-12-07T14:40:22;8.23;;;4.85;;
62844;SDS011;48929;47.910;20.390;2022-12-07T14:42:54;10.30;;;5.45;;
62844;SDS011;48929;47.910;20.390;2022-12-07T14:45:27;10.02;;;6.18;;
62844;SDS011;48929;47.910;20.390;2022-12-07T14:48:00;14.23;;;7.33;;
62844;SDS011;48929;47.910;20.390;2022-12-07T14:50:51;17.63;;;8.80;;
62844;SDS011;48929;47.910;20.390;2022-12-07T14:53:40;15.77;;;8.38;;
62844;SDS011;48929;47.910;20.390;2022-12-07T14:56:10;13.18;;;7.57;;
62844;SDS011;48929;47.910;20.390;2022-12-07T14:58:40;12.98;;;6.20;;
62844;SDS011;48929;47.910;20.390;2022-12-07T15:01:11;9.93;;;5.68;;
62844;SDS011;48929;47.910;20.390;2022-12-07T15:03:40;10.75;;;5.78;;
62844;SDS011;48929;47.910;20.390;2022-12-07T15:06:10;13.98;;;6.88;;
62844;SDS011;48929;47.910;20.390;2022-12-07T15:08:41;14.02;;;7.70;;
62844;SDS011;48929;47.910;20.390;2022-12-07T15:11:14;18.88;;;10.95;;
62844;SDS011;48929;47.910;20.390;2022-12-07T15:13:46;26.10;;;11.18;;
62844;SDS011;48929;47.910;20.390;2022-12-07T15:16:31;30.80;;;11.77;;
62844;SDS011;48929;47.910;20.390;2022-12-07T15:19:20;28.42;;;11.43;;
62844;SDS011;48929;47.910;20.390;2022-12-07T15:21:55;26.92;;;11.15;;
62844;SDS011;48929;47.910;20.390;2022-12-07T15:24:31;19.40;;;10.65;;
62844;SDS011;48929;47.910;20.390;2022-12-07T15:27:00;23.35;;;11.90;;
62844;SDS011;48929;47.910;20.390;2022-12-07T15:29:30;36.63;;;17.63;;
62844;SDS011;48929;47.910;20.390;2022-12-07T15:32:01;21.40;;;12.07;;
62844;SDS011;48929;47.910;20.390;2022-12-07T15:34:30;21.95;;;11.43;;
62844;SDS011;48929;47.910;20.390;2022-12-07T15:37:06;35.58;;;17.52;;
62844;SDS011;48929;47.910;20.390;2022-12-07T15:39:42;25.15;;;13.32;;
62844;SDS011;48929;47.910;20.390;2022-12-07T15:42:12;19.25;;;9.80;;
62844;SDS011;48929;47.910;20.390;2022-12-07T15:44:43;20.40;;;9.88;;
62844;SDS011;48929;47.910;20.390;2022-12-07T15:47:29;21.67;;;11.40;;
62844;SDS011;48929;47.910;20.390;2022-12-07T15:50:06;22.90;;;12.85;;
62844;SDS011;48929;47.910;20.390;2022-12-07T15:52:46;21.80;;;10.68;;
62844;SDS011;48929;47.910;20.390;2022-12-07T15:55:16;21.55;;;10.57;;
62844;SDS011;48929;47.910;20.390;2022-12-07T15:57:47;20.58;;;9.65;;
62844;SDS011;48929;47.910;20.390;2022-12-07T16:00:24;21.63;;;9.55;;
62844;SDS011;48929;47.910;20.390;2022-12-07T16:02:56;23.17;;;9.75;;
62844;SDS011;48929;47.910;20.390;2022-12-07T16:05:25;17.65;;;10.27;;
62844;SDS011;48929;47.910;20.390;2022-12-07T16:07:54;18.27;;;9.48;;